Time;durP1;ratioP1;P1;durP2;ratioP2;P2;SDS_P1;SDS_P2;PMS_P1;PMS_P2;Temp;Humidity;BMP_temperature;BMP_pressure;BME280_temperature;BME280_humidity;BME280_pressure;Samples;Min_cycle;Max_cycle;Signal;HPM_P1;HPM_P2
2022/07/04 00:01:30;;;;;;;8.90;5.68;;;13.20;99.90;;;;;;4985895;28;20069;-90
2022/07/04 00:03:58;;;;;;;5.95;5.05;;;13.10;99.90;;;;;;4954822;28;20045;-91
2022/07/04 00:06:24;;;;;;;6.47;5.75;;;13.00;99.90;;;;;;4969790;28;20540;-92
2022/07/04 00:08:53;;;;;;;6.30;5.57;;;13.00;99.90;;;;;;4990048;28;20041;-91
2022/07/04 00:11:22;;;;;;;6.32;5.72;;;12.90;99.90;;;;;;4971894;28;20042;-92
2022/07/04 00:13:48;;;;;;;6.97;6.32;;;12.90;99.90;;;;;;4985435;28;20413;-92
2022/07/04 00:16:14;;;;;;;8.15;7.18;;;12.90;99.90;;;;;;4969260;28;20052;-93
2022/07/04 00:18:41;;;;;;;9.82;7.05;;;12.90;99.90;;;;;;4954259;28;20068;-92
2022/07/04 00:21:07;;;;;;;8.35;7.57;;;12.90;99.90;;;;;;4988814;28;20034;-92
2022/07/04 00:23:33;;;;;;;9.25;7.63;;;12.90;99.90;;;;;;4970150;28;20038;-92
2022/07/04 00:26:00;;;;;;;9.23;8.32;;;12.90;99.90;;;;;;5016946;28;20448;-92
2022/07/04 00:28:26;;;;;;;8.35;7.60;;;12.90;99.90;;;;;;4973165;28;20121;-90
2022/07/04 00:30:52;;;;;;;8.68;7.00;;;12.90;99.90;;;;;;4969461;28;20522;-92
2022/07/04 00:33:19;;;;;;;6.88;5.30;;;12.90;99.90;;;;;;4972253;28;20077;-91
2022/07/04 00:35:45;;;;;;;7.05;5.32;;;12.90;99.90;;;;;;5001636;28;20041;-92
2022/07/04 00:38:11;;;;;;;6.82;5.93;;;12.80;99.90;;;;;;4990437;28;20049;-92
2022/07/04 00:40:38;;;;;;;7.35;6.60;;;12.80;99.90;;;;;;4974385;28;20062;-92
2022/07/04 00:43:05;;;;;;;7.63;6.88;;;12.70;99.90;;;;;;5000486;28;20065;-92
2022/07/04 00:45:31;;;;;;;7.88;7.07;;;12.70;99.90;;;;;;4999881;28;20049;-92
2022/07/04 00:47:57;;;;;;;8.50;7.60;;;12.70;99.90;;;;;;4989825;28;20124;-92
2022/07/04 00:50:25;;;;;;;10.30;7.88;;;12.70;99.90;;;;;;4972990;28;20053;-92
2022/07/04 00:52:52;;;;;;;8.98;7.93;;;12.70;99.90;;;;;;4958564;28;20571;-91
2022/07/04 00:55:24;;;;;;;10.32;8.55;;;12.70;99.90;;;;;;5004427;28;20514;-92
2022/07/04 00:57:50;;;;;;;10.10;9.10;;;12.70;99.90;;;;;;4989217;28;20060;-92
2022/07/04 01:00:18;;;;;;;10.77;9.68;;;12.70;99.90;;;;;;4977766;28;20054;-92
2022/07/04 01:02:44;;;;;;;10.63;9.32;;;12.70;99.90;;;;;;5004848;28;20085;-92
2022/07/04 01:05:11;;;;;;;10.10;8.90;;;12.70;99.90;;;;;;5014792;28;20126;-92
2022/07/04 01:07:37;;;;;;;10.82;9.82;;;12.70;99.90;;;;;;5003665;28;20038;-92
2022/07/04 01:10:04;;;;;;;10.65;9.55;;;12.70;99.90;;;;;;4989870;28;20361;-92
2022/07/04 01:12:30;;;;;;;9.75;8.85;;;12.70;99.90;;;;;;5012184;28;20548;-92
2022/07/04 01:14:57;;;;;;;11.65;10.45;;;12.70;99.90;;;;;;5004861;28;20050;-92
2022/07/04 01:17:24;;;;;;;11.63;10.38;;;12.70;99.90;;;;;;5006990;28;20109;-91
2022/07/04 01:19:50;;;;;;;12.63;11.32;;;12.70;99.90;;;;;;4959037;28;20054;-92
2022/07/04 01:22:17;;;;;;;10.55;9.55;;;12.70;99.90;;;;;;5005518;28;20046;-92
2022/07/04 01:24:46;;;;;;;11.00;9.90;;;12.60;99.90;;;;;;5006461;28;20138;-92
2022/07/04 01:27:13;;;;;;;9.38;8.48;;;12.60;99.90;;;;;;4973184;28;20552;-91
2022/07/04 01:29:40;;;;;;;8.82;7.60;;;12.50;99.90;;;;;;4984893;28;20545;-92
2022/07/04 01:32:10;;;;;;;9.13;8.10;;;12.40;99.90;;;;;;4979320;28;20163;-92
2022/07/04 01:34:36;;;;;;;11.88;8.90;;;12.40;99.90;;;;;;5005589;28;20132;-92
2022/07/04 01:37:03;;;;;;;10.48;9.07;;;12.40;99.90;;;;;;4971162;28;20085;-92
2022/07/04 01:39:29;;;;;;;21.02;8.40;;;12.30;99.90;;;;;;5010770;28;20620;-91
2022/07/04 01:41:56;;;;;;;9.77;7.82;;;12.30;99.90;;;;;;4959614;28;20048;-92
2022/07/04 01:44:22;;;;;;;15.05;9.60;;;12.30;99.90;;;;;;5005288;28;20050;-92
2022/07/04 01:46:48;;;;;;;10.38;9.35;;;12.30;99.90;;;;;;5004109;28;20049;-92
2022/07/04 01:49:14;;;;;;;9.52;8.65;;;12.20;99.90;;;;;;4991389;28;20037;-92
2022/07/04 01:51:49;;;;;;;10.52;9.40;;;12.20;99.90;;;;;;4990335;28;20191;-92
2022/07/04 01:54:15;;;;;;;10.60;9.50;;;12.20;99.90;;;;;;4990779;28;20042;-93
2022/07/04 01:56:42;;;;;;;14.40;11.32;;;12.20;99.90;;;;;;5008206;28;20595;-92
2022/07/04 01:59:09;;;;;;;11.48;10.27;;;12.20;99.90;;;;;;4993732;28;20049;-92
2022/07/04 02:01:37;;;;;;;15.57;11.85;;;12.20;99.90;;;;;;4991733;28;20160;-92
2022/07/04 02:04:05;;;;;;;13.27;12.05;;;12.20;99.90;;;;;;4992189;28;20044;-90
2022/07/04 02:06:35;;;;;;;13.35;11.75;;;12.30;99.90;;;;;;4993620;28;20052;-91
2022/07/04 02:09:14;;;;;;;13.38;11.38;;;12.20;99.90;;;;;;5028560;28;20042;-91
2022/07/04 02:14:26;;;;;;;11.50;10.50;;;12.20;99.90;;;;;;5017543;28;20032;-91
2022/07/04 02:16:53;;;;;;;13.00;11.80;;;12.20;99.90;;;;;;5047252;28;20042;-92
2022/07/04 02:19:19;;;;;;;11.40;10.23;;;12.20;99.90;;;;;;4996526;28;20030;-91
2022/07/04 02:21:45;;;;;;;12.65;11.35;;;12.10;99.90;;;;;;5026816;28;20033;-92
2022/07/04 02:24:11;;;;;;;11.55;10.38;;;12.10;99.90;;;;;;4986090;28;20139;-92
2022/07/04 02:26:37;;;;;;;12.00;10.50;;;12.10;99.90;;;;;;5034340;28;20041;-92
2022/07/04 02:29:05;;;;;;;37.42;10.82;;;12.10;99.90;;;;;;4981632;28;20081;-91
2022/07/04 02:31:31;;;;;;;12.75;9.15;;;12.00;99.90;;;;;;5007655;28;20524;-93
2022/07/04 02:33:57;;;;;;;12.07;8.70;;;12.00;99.90;;;;;;5021176;28;20056;-92
2022/07/04 02:36:23;;;;;;;10.35;9.38;;;11.90;99.90;;;;;;4971943;28;20053;-91
2022/07/04 02:38:50;;;;;;;10.07;9.07;;;11.90;99.90;;;;;;5004951;28;20042;-92
2022/07/04 02:41:17;;;;;;;11.10;10.15;;;11.90;99.90;;;;;;5003792;28;20400;-92
2022/07/04 02:43:43;;;;;;;9.98;8.98;;;11.90;99.90;;;;;;4978449;28;20049;-91
2022/07/04 02:46:10;;;;;;;10.05;9.15;;;11.90;99.90;;;;;;5005183;28;20121;-92
2022/07/04 02:48:37;;;;;;;8.98;8.10;;;11.90;99.90;;;;;;5002886;28;20536;-92
2022/07/04 02:51:03;;;;;;;9.75;8.68;;;11.90;99.90;;;;;;4989511;28;20484;-92
2022/07/04 02:53:32;;;;;;;10.75;9.80;;;11.90;99.90;;;;;;4987704;28;20050;-92
2022/07/04 02:56:03;;;;;;;10.82;9.73;;;11.80;99.90;;;;;;5003123;28;20056;-92
2022/07/04 02:58:30;;;;;;;9.65;8.82;;;11.80;99.90;;;;;;4983160;28;20041;-91
2022/07/04 03:00:56;;;;;;;8.55;7.70;;;11.80;99.90;;;;;;5004549;28;20060;-93
2022/07/04 03:03:22;;;;;;;9.05;8.15;;;11.80;99.90;;;;;;4939164;28;20042;-92
2022/07/04 03:05:49;;;;;;;10.13;9.18;;;11.80;99.90;;;;;;4987667;28;20045;-92
2022/07/04 03:08:15;;;;;;;12.13;10.88;;;11.80;99.90;;;;;;4972277;28;20045;-92
2022/07/04 03:10:41;;;;;;;11.85;10.73;;;11.80;99.90;;;;;;4955903;28;20050;-92
2022/07/04 03:13:07;;;;;;;12.55;11.23;;;11.80;99.90;;;;;;4983463;28;20361;-91
2022/07/04 03:15:34;;;;;;;11.65;10.55;;;11.80;99.90;;;;;;4986221;28;20053;-92
2022/07/04 03:18:00;;;;;;;16.65;12.73;;;11.70;99.90;;;;;;4986624;28;20470;-91
2022/07/04 03:20:26;;;;;;;12.68;11.50;;;11.80;99.90;;;;;;4988397;28;20050;-91
2022/07/04 03:22:54;;;;;;;11.55;10.35;;;11.80;99.90;;;;;;5002571;28;20084;-92
2022/07/04 03:25:21;;;;;;;11.75;10.65;;;11.80;99.90;;;;;;4987940;28;20044;-91
2022/07/04 03:27:47;;;;;;;14.27;12.80;;;11.80;99.90;;;;;;4991040;28;20049;-93
2022/07/04 03:30:16;;;;;;;13.77;12.48;;;11.90;99.90;;;;;;4978547;28;20394;-91
2022/07/04 03:32:43;;;;;;;15.90;14.23;;;11.90;99.90;;;;;;5036391;28;20066;-92
2022/07/04 03:35:11;;;;;;;15.07;13.55;;;11.90;99.90;;;;;;4990680;28;20069;-92
2022/07/04 03:37:37;;;;;;;14.07;12.77;;;11.90;99.90;;;;;;4969922;28;20527;-92
2022/07/04 03:40:05;;;;;;;15.30;13.80;;;11.90;99.90;;;;;;5007649;28;20048;-92
2022/07/04 03:42:31;;;;;;;15.00;13.30;;;12.00;99.90;;;;;;4985737;28;20054;-92
2022/07/04 03:44:57;;;;;;;14.63;13.20;;;11.90;99.90;;;;;;4988576;28;20060;-92
2022/07/04 03:47:24;;;;;;;14.15;12.85;;;12.00;99.90;;;;;;4987923;28;20042;-92
2022/07/04 03:49:50;;;;;;;14.40;13.00;;;12.00;99.90;;;;;;4987367;28;20073;-92
2022/07/04 03:52:16;;;;;;;14.57;13.20;;;12.00;99.90;;;;;;4988624;28;20061;-92
2022/07/04 03:54:42;;;;;;;17.10;15.25;;;12.10;99.90;;;;;;5018848;28;20042;-92
2022/07/04 03:57:09;;;;;;;16.85;15.35;;;12.10;99.90;;;;;;4990523;28;20053;-91
2022/07/04 03:59:36;;;;;;;17.15;15.45;;;12.10;99.90;;;;;;5004506;28;20584;-92
2022/07/04 04:02:03;;;;;;;16.58;14.95;;;12.10;99.90;;;;;;5003138;28;20069;-93
2022/07/04 04:07:17;;;;;;;16.58;14.88;;;12.20;99.90;;;;;;5015597;28;20093;-92
2022/07/04 04:09:44;;;;;;;18.98;15.30;;;12.30;99.90;;;;;;5005463;28;20156;-92
2022/07/04 04:12:10;;;;;;;16.75;15.07;;;12.30;99.90;;;;;;4955415;28;20119;-93
2022/07/04 04:14:36;;;;;;;17.20;15.52;;;12.30;99.90;;;;;;4988338;28;20115;-93
2022/07/04 04:17:03;;;;;;;15.10;13.50;;;12.30;99.90;;;;;;4958655;28;20038;-93
2022/07/04 04:19:29;;;;;;;14.85;13.40;;;12.30;99.90;;;;;;5003854;28;20046;-92
2022/07/04 04:21:56;;;;;;;16.63;15.02;;;12.30;99.90;;;;;;4961368;28;20056;-91
2022/07/04 04:24:22;;;;;;;16.55;14.88;;;12.40;99.90;;;;;;4973818;28;20436;-92
2022/07/04 04:26:48;;;;;;;16.05;14.32;;;12.50;99.90;;;;;;4993147;28;20041;-93
2022/07/04 04:29:15;;;;;;;16.55;14.77;;;12.50;99.90;;;;;;5026695;28;20501;-92
2022/07/04 04:31:41;;;;;;;17.25;15.45;;;12.60;99.90;;;;;;4990355;28;20409;-93
2022/07/04 04:34:07;;;;;;;17.60;15.93;;;12.70;99.90;;;;;;5003163;28;20049;-93
2022/07/04 04:36:34;;;;;;;17.73;16.02;;;12.80;99.90;;;;;;4998999;28;20046;-93
2022/07/04 04:39:00;;;;;;;19.63;17.33;;;12.80;99.90;;;;;;4974856;28;20096;-93
2022/07/04 04:41:26;;;;;;;19.00;17.10;;;12.90;99.90;;;;;;4999867;28;20045;-93
2022/07/04 04:43:53;;;;;;;19.75;17.33;;;13.00;99.90;;;;;;4989551;28;20500;-93
2022/07/04 04:46:20;;;;;;;18.38;16.67;;;13.10;99.90;;;;;;5006762;28;20041;-94
2022/07/04 04:48:46;;;;;;;16.55;15.02;;;13.20;99.90;;;;;;4991112;28;20042;-94
2022/07/04 04:51:16;;;;;;;17.73;16.02;;;13.30;99.90;;;;;;5024960;28;20729;-93
2022/07/04 04:53:42;;;;;;;18.95;15.40;;;13.40;99.90;;;;;;4995457;28;20128;-93
2022/07/04 04:56:11;;;;;;;17.35;15.25;;;13.50;99.90;;;;;;4976610;28;20144;-93
2022/07/04 04:58:39;;;;;;;16.67;14.98;;;13.50;99.90;;;;;;4974697;28;20056;-94
2022/07/04 05:01:06;;;;;;;18.20;16.05;;;13.60;99.90;;;;;;4972367;28;20037;-93
2022/07/04 05:03:56;;;;;;;18.00;14.23;;;13.80;99.90;;;;;;4992491;28;20505;-93
2022/07/04 05:06:25;;;;;;;17.52;14.77;;;13.90;99.90;;;;;;4958187;28;20508;-92
2022/07/04 05:08:52;;;;;;;15.65;14.15;;;14.00;99.90;;;;;;4983712;28;20053;-92
2022/07/04 05:11:27;;;;;;;16.75;13.75;;;14.10;99.90;;;;;;4977205;28;20094;-92
2022/07/04 05:13:54;;;;;;;15.15;12.10;;;14.30;99.90;;;;;;4995697;28;20069;-93
2022/07/04 05:16:24;;;;;;;14.50;12.43;;;14.50;99.90;;;;;;4991682;28;20060;-93
2022/07/04 05:18:50;;;;;;;13.82;11.50;;;14.80;99.90;;;;;;4974894;28;20065;-93
2022/07/04 05:21:17;;;;;;;11.52;10.32;;;15.20;99.90;;;;;;4973614;28;20064;-92
2022/07/04 05:23:44;;;;;;;12.15;9.57;;;15.50;99.90;;;;;;4973205;28;20049;-94
2022/07/04 05:26:11;;;;;;;10.50;9.25;;;15.80;99.90;;;;;;5011170;28;20383;-93
2022/07/04 05:28:43;;;;;;;10.20;9.20;;;16.10;99.90;;;;;;4974233;28;20545;-85
2022/07/04 05:31:12;;;;;;;11.23;8.77;;;16.10;99.90;;;;;;4981466;28;20053;-84
2022/07/04 05:33:38;;;;;;;10.05;8.27;;;16.30;99.90;;;;;;4984168;28;20045;-83
2022/07/04 05:36:04;;;;;;;11.27;8.20;;;16.40;99.90;;;;;;5017269;28;20314;-83
2022/07/04 05:38:31;;;;;;;10.98;9.00;;;16.50;99.90;;;;;;4954155;28;20583;-83
2022/07/04 05:40:57;;;;;;;13.27;8.80;;;16.60;99.90;;;;;;4968328;28;20049;-84
2022/07/04 05:43:25;;;;;;;9.80;7.72;;;16.70;99.90;;;;;;4953344;28;20042;-84
2022/07/04 05:45:51;;;;;;;11.80;7.97;;;16.80;99.90;;;;;;4985298;28;20077;-84
2022/07/04 05:48:18;;;;;;;9.32;7.72;;;16.90;99.90;;;;;;5006336;28;20085;-84
2022/07/04 05:50:44;;;;;;;9.95;7.03;;;17.20;99.90;;;;;;4971291;28;20076;-83
2022/07/04 05:53:10;;;;;;;9.68;6.95;;;17.20;99.90;;;;;;4970620;28;20049;-83
2022/07/04 05:55:39;;;;;;;11.23;7.53;;;17.30;99.90;;;;;;4972444;28;20046;-83
2022/07/04 05:58:05;;;;;;;8.30;6.15;;;17.40;99.90;;;;;;5004234;28;20056;-84
2022/07/04 06:00:32;;;;;;;7.68;6.60;;;17.30;99.90;;;;;;4991874;28;20081;-83
2022/07/04 06:02:58;;;;;;;9.43;6.07;;;17.30;99.90;;;;;;4979250;28;20360;-84
2022/07/04 06:05:24;;;;;;;10.13;6.60;;;17.50;99.90;;;;;;4969509;28;20037;-83
2022/07/04 06:07:50;;;;;;;8.23;6.22;;;17.40;99.90;;;;;;4968717;28;20061;-84
2022/07/04 06:10:17;;;;;;;11.48;6.72;;;17.20;99.90;;;;;;4970435;28;20057;-84
2022/07/04 06:12:44;;;;;;;7.10;6.22;;;17.30;99.90;;;;;;4986282;28;20516;-85
2022/07/04 06:15:10;;;;;;;9.55;6.60;;;17.30;99.90;;;;;;5001484;28;20065;-84
2022/07/04 06:17:37;;;;;;;10.45;6.60;;;17.30;99.90;;;;;;4973867;28;20123;-84
2022/07/04 06:20:04;;;;;;;7.93;7.00;;;17.40;99.90;;;;;;5003059;28;20597;-84
2022/07/04 06:22:43;;;;;;;10.68;6.88;;;17.60;99.90;;;;;;4954875;28;20050;-84
2022/07/04 06:25:15;;;;;;;9.85;6.57;;;17.80;99.90;;;;;;5005896;28;20376;-83
2022/07/04 06:27:46;;;;;;;9.32;6.07;;;18.10;99.90;;;;;;4970447;28;20497;-83
2022/07/04 06:30:13;;;;;;;9.97;6.53;;;18.30;99.90;;;;;;4988541;28;20050;-84
2022/07/04 06:32:48;;;;;;;8.52;6.00;;;18.30;99.90;;;;;;5019589;28;20409;-83
2022/07/04 06:38:08;;;;;;;8.95;6.00;;;18.60;99.90;;;;;;5004244;28;20050;-84
2022/07/04 06:40:36;;;;;;;8.00;6.50;;;18.80;99.90;;;;;;4970730;28;20053;-84
2022/07/04 06:43:03;;;;;;;8.05;5.95;;;18.80;99.90;;;;;;4957982;28;20103;-84
2022/07/04 06:45:30;;;;;;;8.80;6.22;;;19.00;99.90;;;;;;4984537;28;20049;-84
2022/07/04 06:47:56;;;;;;;11.23;5.60;;;19.00;99.90;;;;;;5007546;28;20046;-83
2022/07/04 06:50:23;;;;;;;10.30;6.00;;;19.20;99.90;;;;;;4993242;28;20053;-83
2022/07/04 06:52:49;;;;;;;8.85;5.03;;;19.20;99.90;;;;;;4955863;28;20049;-83
2022/07/04 06:55:15;;;;;;;7.78;5.15;;;19.20;99.90;;;;;;4975906;28;20049;-83
2022/07/04 06:57:41;;;;;;;11.15;5.95;;;19.40;99.90;;;;;;4974905;28;20046;-82
2022/07/04 07:00:08;;;;;;;8.63;5.47;;;19.30;99.90;;;;;;4992380;28;20113;-83
2022/07/04 07:02:35;;;;;;;11.18;5.15;;;19.50;99.90;;;;;;4992325;28;20050;-85
2022/07/04 07:05:02;;;;;;;9.52;4.80;;;19.80;99.90;;;;;;4981941;28;20441;-83
2022/07/04 07:07:28;;;;;;;9.85;5.10;;;19.80;99.90;;;;;;5001190;28;20143;-83
2022/07/04 07:09:55;;;;;;;8.13;4.88;;;19.60;99.90;;;;;;4986261;28;20077;-84
2022/07/04 07:12:22;;;;;;;8.90;5.00;;;19.50;99.90;;;;;;5001405;28;20581;-82
2022/07/04 07:14:49;;;;;;;8.48;5.00;;;19.70;99.90;;;;;;4999649;28;20084;-83
2022/07/04 07:17:16;;;;;;;11.32;5.32;;;19.80;99.90;;;;;;4961469;28;20073;-83
2022/07/04 07:19:43;;;;;;;13.00;5.47;;;19.90;99.90;;;;;;5000623;28;20038;-84
2022/07/04 07:22:11;;;;;;;10.30;4.65;;;19.90;99.90;;;;;;4985378;28;20050;-82
2022/07/04 07:24:38;;;;;;;9.48;5.20;;;20.10;99.90;;;;;;4999595;28;20566;-84
2022/07/04 07:27:05;;;;;;;8.52;5.10;;;20.30;99.90;;;;;;4981910;28;20059;-84
2022/07/04 07:29:31;;;;;;;10.35;5.53;;;20.60;99.90;;;;;;5016285;28;20052;-84
2022/07/04 07:31:58;;;;;;;9.98;5.38;;;20.80;99.90;;;;;;4976235;28;20135;-84
2022/07/04 07:34:25;;;;;;;17.45;12.52;;;21.10;99.90;;;;;;4973497;28;20046;-85
2022/07/04 07:36:51;;;;;;;10.98;6.95;;;21.00;99.90;;;;;;4971553;28;20081;-84
2022/07/04 07:39:17;;;;;;;15.50;12.63;;;21.20;99.90;;;;;;4984001;28;20462;-84
2022/07/04 07:41:45;;;;;;;8.23;4.70;;;21.00;99.90;;;;;;5004623;28;20441;-84
2022/07/04 07:44:18;;;;;;;13.77;9.05;;;20.80;99.90;;;;;;4984509;28;20551;-84
2022/07/04 07:47:56;;;;;;;9.90;5.72;;;20.90;99.90;;;;;;5009215;28;20133;-82
2022/07/04 07:51:11;;;;;;;12.25;6.53;;;21.30;99.90;;;;;;5029510;28;20049;-83
2022/07/04 07:53:40;;;;;;;10.70;5.82;;;21.50;99.90;;;;;;4959058;28;20097;-84
2022/07/04 07:56:07;;;;;;;7.43;4.43;;;21.40;99.90;;;;;;4999725;28;20060;-84
2022/07/04 07:58:33;;;;;;;9.57;4.38;;;21.40;99.90;;;;;;4984640;28;20516;-84
2022/07/04 08:01:01;;;;;;;10.70;4.35;;;21.60;99.90;;;;;;5027401;28;20049;-84
2022/07/04 08:06:14;;;;;;;8.65;3.75;;;21.10;99.90;;;;;;5005664;28;20048;-82
2022/07/04 08:08:42;;;;;;;7.15;2.95;;;21.10;99.90;;;;;;5002946;28;20371;-83
2022/07/04 08:11:09;;;;;;;8.30;3.42;;;20.60;99.90;;;;;;5006463;28;20413;-84
2022/07/04 08:13:35;;;;;;;9.75;3.53;;;20.40;99.90;;;;;;4994284;28;20061;-83
2022/07/04 08:16:02;;;;;;;8.52;3.25;;;20.10;99.90;;;;;;5001272;28;20052;-84
2022/07/04 08:18:29;;;;;;;8.27;3.90;;;19.90;99.90;;;;;;4966414;28;20056;-83
2022/07/04 08:20:55;;;;;;;13.38;3.70;;;19.60;99.90;;;;;;4994102;28;20056;-83
2022/07/04 08:23:21;;;;;;;8.55;3.42;;;19.50;99.90;;;;;;4985696;28;20041;-83
2022/07/04 08:25:48;;;;;;;12.18;3.90;;;19.30;99.90;;;;;;5003484;28;20492;-84
2022/07/04 08:28:19;;;;;;;7.88;3.70;;;19.20;99.90;;;;;;4945783;28;20497;-83
2022/07/04 08:30:46;;;;;;;7.13;2.53;;;19.20;99.90;;;;;;5017405;28;20156;-84
2022/07/04 08:33:18;;;;;;;10.98;3.42;;;19.80;99.90;;;;;;4981900;28;20038;-84
2022/07/04 08:35:45;;;;;;;8.48;3.45;;;20.20;99.90;;;;;;5004084;28;20046;-84
2022/07/04 08:38:11;;;;;;;9.63;2.80;;;20.70;99.90;;;;;;4951531;28;20046;-84
2022/07/04 08:40:37;;;;;;;6.88;2.10;;;21.40;99.90;;;;;;5003658;28;20053;-83
2022/07/04 08:43:04;;;;;;;9.85;3.08;;;21.90;99.90;;;;;;5000855;28;20544;-84
2022/07/04 08:45:35;;;;;;;6.88;2.33;;;22.10;99.90;;;;;;4980503;28;20130;-85
2022/07/04 08:48:04;;;;;;;7.45;2.60;;;22.30;99.90;;;;;;4991824;28;20042;-84
2022/07/04 08:50:37;;;;;;;6.43;1.92;;;22.50;99.90;;;;;;5006185;28;20042;-84
2022/07/04 08:53:11;;;;;;;5.22;2.10;;;22.00;99.90;;;;;;5037324;28;20045;-83
2022/07/04 08:58:25;;;;;;;3.97;1.70;;;21.90;99.90;;;;;;5015983;28;20389;-83
2022/07/04 09:00:53;;;;;;;6.05;2.78;;;22.50;99.90;;;;;;4991250;28;20046;-83
2022/07/04 09:03:20;;;;;;;5.93;1.85;;;22.80;99.90;;;;;;5004249;28;20409;-83
2022/07/04 09:05:47;;;;;;;6.65;1.70;;;23.60;99.90;;;;;;5006172;28;20045;-83
2022/07/04 09:08:14;;;;;;;8.10;1.80;;;23.80;99.90;;;;;;4994566;28;20592;-83
2022/07/04 09:10:40;;;;;;;4.43;1.73;;;23.10;99.90;;;;;;5016566;28;20044;-83
2022/07/04 09:13:08;;;;;;;5.07;1.65;;;23.10;99.90;;;;;;4948491;28;20050;-84
2022/07/04 09:15:35;;;;;;;3.97;1.48;;;22.60;99.90;;;;;;5002603;28;20050;-84
2022/07/04 09:18:03;;;;;;;5.18;1.60;;;22.70;99.90;;;;;;4999686;28;20410;-83
2022/07/04 09:20:31;;;;;;;4.05;1.80;;;22.40;99.90;;;;;;5022300;28;20468;-83
2022/07/04 09:22:58;;;;;;;5.22;1.75;;;22.10;99.90;;;;;;4991422;28;20053;-83
2022/07/04 09:25:25;;;;;;;7.07;2.28;;;22.00;99.90;;;;;;4997575;28;20181;-83
2022/07/04 09:27:56;;;;;;;5.22;1.90;;;21.80;99.90;;;;;;4983306;28;20133;-83
2022/07/04 09:30:27;;;;;;;3.60;1.73;;;21.40;99.90;;;;;;4970190;28;20600;-82
2022/07/04 09:33:04;;;;;;;9.18;1.95;;;21.20;99.90;;;;;;4996296;28;20042;-83
2022/07/04 09:35:34;;;;;;;5.10;1.90;;;21.10;99.90;;;;;;4966228;28;20096;-84
2022/07/04 09:38:04;;;;;;;4.25;2.00;;;21.00;99.90;;;;;;4986727;28;20057;-84
2022/07/04 09:43:23;;;;;;;6.38;1.80;;;20.70;99.90;;;;;;4954837;28;20053;-84
2022/07/04 09:45:54;;;;;;;4.07;1.77;;;20.70;99.90;;;;;;4983499;28;20709;-84
2022/07/04 09:48:21;;;;;;;5.68;1.42;;;20.60;99.90;;;;;;4971232;28;20485;-84
2022/07/04 09:50:47;;;;;;;4.38;1.73;;;20.60;99.90;;;;;;4957744;28;20423;-83
2022/07/04 09:53:14;;;;;;;5.30;1.60;;;20.80;99.90;;;;;;5009727;28;20392;-84
2022/07/04 09:55:40;;;;;;;6.00;1.80;;;21.50;99.90;;;;;;4953250;28;20057;-84
2022/07/04 09:58:09;;;;;;;3.60;1.50;;;22.20;99.90;;;;;;4983795;28;20050;-83
2022/07/04 10:00:47;;;;;;;6.75;1.95;;;22.60;99.90;;;;;;4985279;28;20739;-83
2022/07/04 10:03:16;;;;;;;6.28;2.38;;;22.50;99.90;;;;;;5008258;28;20146;-83
2022/07/04 10:05:44;;;;;;;5.00;1.92;;;22.20;99.90;;;;;;5003296;28;20034;-83
2022/07/04 10:08:11;;;;;;;5.50;1.70;;;21.90;99.90;;;;;;4965263;28;20044;-83
2022/07/04 10:10:39;;;;;;;5.32;1.50;;;21.80;99.90;;;;;;5014999;28;20129;-83
2022/07/04 10:13:08;;;;;;;5.43;1.52;;;21.90;99.90;;;;;;5015354;28;20452;-83
2022/07/04 10:15:39;;;;;;;5.65;1.88;;;22.10;99.90;;;;;;4973522;28;20155;-83
2022/07/04 10:18:06;;;;;;;;;;;22.40;99.90;;;;;;4987564;28;20456;-83
2022/07/04 10:20:32;;;;;;;3.40;1.50;;;22.80;99.90;;;;;;4984968;28;19921;-83
2022/07/04 10:22:59;;;;;;;2.58;1.00;;;23.00;99.90;;;;;;4999376;28;20568;-83
2022/07/04 10:25:27;;;;;;;3.35;2.00;;;22.80;99.90;;;;;;4997764;28;20137;-83
2022/07/04 10:27:53;;;;;;;3.78;1.67;;;22.60;99.90;;;;;;4998949;28;20278;-83
2022/07/04 10:30:32;;;;;;;5.78;2.70;;;22.40;99.90;;;;;;4996930;28;20525;-83
2022/07/04 10:33:01;;;;;;;5.25;1.80;;;22.00;99.90;;;;;;4998515;28;20050;-83
2022/07/04 10:35:48;;;;;;;3.95;1.38;;;21.90;99.90;;;;;;4982909;28;20042;-82
2022/07/04 10:38:16;;;;;;;5.75;1.20;;;21.80;99.90;;;;;;5002736;28;20534;-83
2022/07/04 10:40:51;;;;;;;3.83;1.42;;;21.70;99.90;;;;;;4998772;28;20484;-82
2022/07/04 10:43:40;;;;;;;4.18;1.40;;;21.80;99.90;;;;;;5000238;28;20042;-82
2022/07/04 10:46:12;;;;;;;4.38;1.30;;;21.80;99.90;;;;;;4998296;28;20045;-82
2022/07/04 10:49:04;;;;;;;3.08;1.42;;;21.90;99.90;;;;;;4947266;28;20042;-83
2022/07/04 10:51:35;;;;;;;4.65;1.60;;;22.10;99.90;;;;;;4999676;28;20469;-83
2022/07/04 10:54:05;;;;;;;3.00;1.55;;;22.90;99.90;;;;;;4986085;28;20041;-82
2022/07/04 10:56:49;;;;;;;3.65;1.63;;;23.30;99.90;;;;;;4982940;28;20137;-82
2022/07/04 10:59:22;;;;;;;3.80;1.40;;;23.60;99.90;;;;;;5003475;28;20092;-83
2022/07/04 11:02:11;;;;;;;4.40;1.42;;;23.70;99.90;;;;;;4983433;28;20053;-82
2022/07/04 11:05:06;;;;;;;3.28;1.60;;;24.30;99.90;;;;;;4958050;28;20132;-83
2022/07/04 11:07:35;;;;;;;4.85;2.63;;;24.80;99.90;;;;;;4998479;28;20045;-82
2022/07/04 11:10:16;;;;;;;5.30;1.83;;;23.90;99.90;;;;;;4981855;28;20101;-82
2022/07/04 11:12:54;;;;;;;4.85;2.05;;;23.90;99.90;;;;;;4998807;28;20081;-82
2022/07/04 11:15:32;;;;;;;4.95;1.90;;;23.50;99.90;;;;;;4999860;28;20046;-82
2022/07/04 11:18:10;;;;;;;3.65;1.80;;;23.50;99.90;;;;;;4983611;28;20049;-82
2022/07/04 11:20:38;;;;;;;3.80;1.48;;;23.30;99.90;;;;;;4998227;28;20460;-81
2022/07/04 11:23:12;;;;;;;4.35;1.92;;;22.80;99.90;;;;;;5006030;28;20115;-82
2022/07/04 11:25:41;;;;;;;3.80;1.17;;;23.10;99.90;;;;;;5002007;28;20084;-82
2022/07/04 11:28:19;;;;;;;4.47;1.35;;;23.60;99.90;;;;;;4994740;28;20042;-83
2022/07/04 11:30:50;;;;;;;4.18;1.25;;;23.90;99.90;;;;;;4994250;28;20108;-83
2022/07/04 11:33:25;;;;;;;3.50;1.40;;;24.30;99.90;;;;;;4994184;28;20044;-83
2022/07/04 11:36:06;;;;;;;2.53;1.30;;;24.60;99.90;;;;;;4983207;28;20088;-82
2022/07/04 11:38:51;;;;;;;3.63;1.20;;;25.10;99.90;;;;;;5035744;28;20053;-82
2022/07/04 11:46:49;;;;;;;3.38;1.45;;;25.60;96.50;;;;;;4980115;28;20045;-82
2022/07/04 11:49:15;;;;;;;2.72;0.88;;;25.90;93.70;;;;;;4948032;28;20145;-82
2022/07/04 11:51:43;;;;;;;1.15;0.65;;;25.70;71.20;;;;;;5010424;28;20050;-81
2022/07/04 11:54:10;;;;;;;2.90;0.77;;;26.30;66.10;;;;;;5032599;28;20046;-81
2022/07/04 11:56:36;;;;;;;2.42;0.80;;;26.10;74.30;;;;;;4983072;28;20613;-82
2022/07/04 11:59:11;;;;;;;4.30;1.10;;;26.00;73.00;;;;;;4982393;28;20105;-82
2022/07/04 12:01:37;;;;;;;3.13;1.05;;;25.90;82.00;;;;;;4982598;28;20500;-81
2022/07/04 12:04:18;;;;;;;2.65;1.20;;;25.60;89.60;;;;;;4981051;28;20224;-82
2022/07/04 12:06:47;;;;;;;3.38;1.02;;;25.70;69.10;;;;;;4961005;28;20046;-82
2022/07/04 12:09:16;;;;;;;3.83;1.27;;;25.90;88.60;;;;;;5012474;28;20132;-82
2022/07/04 12:11:57;;;;;;;2.35;0.88;;;25.70;73.60;;;;;;4996699;28;20049;-81
2022/07/04 12:14:24;;;;;;;;;;;25.60;60.10;;;;;;4996491;28;20560;-82
2022/07/04 12:17:12;;;;;;;2.72;0.82;;;25.50;69.00;;;;;;4996907;28;19924;-82
2022/07/04 12:19:48;;;;;;;1.38;0.60;;;26.10;65.60;;;;;;4997458;28;20050;-82
2022/07/04 12:22:25;;;;;;;3.58;1.60;;;25.50;63.20;;;;;;4975440;28;20521;-82
2022/07/04 12:24:51;;;;;;;4.38;1.60;;;25.30;64.60;;;;;;5025286;28;20042;-82
2022/07/04 12:27:21;;;;;;;4.03;1.65;;;25.20;64.50;;;;;;4996454;28;20049;-82
2022/07/04 12:29:49;;;;;;;24.73;22.35;;;25.40;59.90;;;;;;5016810;28;20049;-82
2022/07/04 12:32:16;;;;;;;7.38;5.25;;;25.70;65.70;;;;;;4998537;28;20597;-82
2022/07/04 12:34:43;;;;;;;5.15;2.83;;;25.70;71.10;;;;;;4965701;28;20054;-81
2022/07/04 12:37:11;;;;;;;8.15;5.88;;;25.60;65.90;;;;;;4994536;28;20050;-82
2022/07/04 12:39:40;;;;;;;8.20;6.70;;;25.70;61.80;;;;;;4998366;28;20092;-81
2022/07/04 12:42:17;;;;;;;5.22;3.00;;;25.20;62.70;;;;;;5021918;28;20061;-81
2022/07/04 12:44:45;;;;;;;5.63;2.35;;;25.40;69.90;;;;;;4993973;28;20041;-81
2022/07/04 12:47:12;;;;;;;3.58;3.22;;;25.50;57.80;;;;;;5016646;28;20468;-81
2022/07/04 12:49:44;;;;;;;3.95;3.22;;;25.70;59.60;;;;;;4990092;28;20100;-82
2022/07/04 12:52:16;;;;;;;4.97;3.22;;;25.40;57.10;;;;;;4958029;28;20042;-82
2022/07/04 12:54:47;;;;;;;2.38;1.27;;;25.60;56.80;;;;;;5001273;28;20505;-81
2022/07/04 12:57:18;;;;;;;7.63;6.82;;;25.70;54.10;;;;;;4984606;28;20069;-81
2022/07/04 12:59:44;;;;;;;;;;;26.10;51.70;;;;;;5000936;28;20061;-81
2022/07/04 13:02:14;;;;;;;7.65;6.60;;;25.70;51.20;;;;;;4984180;28;20340;-82
2022/07/04 13:04:41;;;;;;;1.93;1.50;;;26.00;51.20;;;;;;4985073;28;20089;-82
2022/07/04 13:07:17;;;;;;;5.97;3.90;;;25.70;49.30;;;;;;4984586;28;20133;-81
2022/07/04 13:09:45;;;;;;;2.17;1.60;;;25.90;50.70;;;;;;4969034;28;20668;-81
2022/07/04 13:12:28;;;;;;;5.68;0.73;;;25.80;50.50;;;;;;5000406;28;20402;-82